createdAt,value
2019-02-04T00:01:27.657Z,95468.34
2019-02-04T00:03:57.204Z,95490.11
2019-02-04T00:06:26.682Z,95480.35
2019-02-04T00:08:56.139Z,95489.51
2019-02-04T00:11:25.545Z,95492.53
2019-02-04T00:13:55.013Z,95493.10
2019-02-04T00:16:24.394Z,95484.40
2019-02-04T00:18:53.781Z,95498.83
2019-02-04T00:21:23.223Z,95500.42
2019-02-04T00:23:52.634Z,95503.17
2019-02-04T00:26:21.995Z,95481.23
2019-02-04T00:28:51.341Z,95502.28
2019-02-04T00:31:21.119Z,95496.91
2019-02-04T00:33:50.586Z,95508.55
2019-02-04T00:36:19.941Z,95522.00
2019-02-04T00:38:49.233Z,95515.08
2019-02-04T00:41:18.600Z,95529.95
2019-02-04T00:43:47.954Z,95519.70
2019-02-04T00:46:17.489Z,95542.50
2019-02-04T00:48:47.781Z,95544.10
2019-02-04T00:51:17.385Z,95559.03
2019-02-04T00:53:46.912Z,95557.20
2019-02-04T00:56:16.923Z,95561.53
2019-02-04T00:58:46.289Z,95550.63
2019-02-04T01:01:15.685Z,95553.64
2019-02-04T01:03:46.257Z,95541.43
2019-02-04T01:06:16.094Z,95558.21
2019-02-04T01:08:45.580Z,95556.18
2019-02-04T01:11:14.929Z,95560.56
2019-02-04T01:13:44.666Z,95552.53
2019-02-04T01:16:14.044Z,95541.45
2019-02-04T01:18:43.411Z,95547.81
2019-02-04T01:21:12.765Z,95539.44
2019-02-04T01:23:42.139Z,95537.94
2019-02-04T01:26:11.469Z,95541.69
2019-02-04T01:28:40.826Z,95545.97
2019-02-04T01:31:10.184Z,95553.88
2019-02-04T01:33:39.545Z,95561.28
2019-02-04T01:36:08.922Z,95564.69
2019-02-04T01:38:38.274Z,95563.89
2019-02-04T01:41:07.586Z,95573.54
2019-02-04T01:43:37.375Z,95568.82
2019-02-04T01:46:06.741Z,95561.73
2019-02-04T01:48:36.109Z,95576.67
2019-02-04T01:51:05.468Z,95575.97
2019-02-04T01:53:34.857Z,95575.52
2019-02-04T01:56:04.482Z,95563.28
2019-02-04T01:58:33.909Z,95560.36
2019-02-04T02:01:03.258Z,95579.02
2019-02-04T02:03:32.722Z,95583.00
2019-02-04T02:06:02.081Z,95576.50
2019-02-04T02:08:31.477Z,95582.66
2019-02-04T02:11:00.980Z,95583.31
2019-02-04T02:13:30.329Z,95602.66
2019-02-04T02:15:59.645Z,95598.84
2019-02-04T02:18:29.002Z,95605.11
2019-02-04T02:20:58.332Z,95601.42
2019-02-04T02:23:27.690Z,95609.74
2019-02-04T02:25:57.056Z,95607.96
2019-02-04T02:28:26.419Z,95613.06
2019-02-04T02:30:55.762Z,95627.51
2019-02-04T02:33:25.145Z,95620.92
2019-02-04T02:35:54.529Z,95624.53
2019-02-04T02:38:24.256Z,95620.21
2019-02-04T02:40:53.627Z,95613.77
2019-02-04T02:43:22.974Z,95624.67
2019-02-04T02:45:52.302Z,95619.67
2019-02-04T02:48:21.645Z,95615.39
2019-02-04T02:50:51.072Z,95633.33
2019-02-04T02:53:20.831Z,95621.75
2019-02-04T02:55:50.181Z,95606.88
2019-02-04T02:58:19.509Z,95625.02
2019-02-04T03:00:48.826Z,95626.13
2019-02-04T03:03:18.140Z,95625.33
2019-02-04T03:05:47.471Z,95633.82
2019-02-04T03:08:16.870Z,95640.43
2019-02-04T03:10:46.204Z,95640.56
2019-02-04T03:13:15.512Z,95640.38
2019-02-04T03:15:44.843Z,95642.52
2019-02-04T03:18:14.217Z,95625.23
2019-02-04T03:20:43.630Z,95634.92
2019-02-04T03:23:12.980Z,95625.94
2019-02-04T03:25:42.421Z,95621.97
2019-02-04T03:28:11.783Z,95630.64
2019-02-04T03:30:41.149Z,95633.08
2019-02-04T03:33:10.491Z,95638.07
2019-02-04T03:35:39.848Z,95637.84
2019-02-04T03:38:09.239Z,95636.30
2019-02-04T03:40:38.585Z,95649.31
2019-02-04T03:43:07.920Z,95633.66
2019-02-04T03:45:37.257Z,95642.86
2019-02-04T03:48:08.398Z,95649.27
2019-02-04T03:50:37.651Z,95644.52
2019-02-04T03:53:06.961Z,95644.30
2019-02-04T03:55:36.343Z,95646.30
2019-02-04T03:58:05.996Z,95630.45
2019-02-04T04:00:36.610Z,95632.85
2019-02-04T04:03:05.965Z,95641.52
2019-02-04T04:05:35.366Z,95635.84
2019-02-04T04:08:04.825Z,95631.98
2019-02-04T04:10:34.171Z,95632.30
2019-02-04T04:13:03.505Z,95633.98
2019-02-04T04:15:32.908Z,95624.38
2019-02-04T04:18:02.520Z,95634.60
2019-02-04T04:20:31.852Z,95653.52
2019-02-04T04:23:01.191Z,95645.96
2019-02-04T04:25:32.698Z,95644.58
2019-02-04T04:28:02.049Z,95647.95
2019-02-04T04:30:31.393Z,95647.64
2019-02-04T04:33:00.696Z,95636.49
2019-02-04T04:35:30.074Z,95642.45
2019-02-04T04:37:59.530Z,95637.47
2019-02-04T04:40:28.820Z,95637.80
2019-02-04T04:42:58.232Z,95641.52
2019-02-04T04:45:28.082Z,95642.37
2019-02-04T04:47:57.422Z,95653.05
2019-02-04T04:50:26.802Z,95663.44
2019-02-04T04:52:56.120Z,95662.89
2019-02-04T04:55:26.615Z,95662.55
2019-02-04T04:57:56.438Z,95669.84
2019-02-04T05:00:30.725Z,95671.84
2019-02-04T05:03:00.067Z,95676.35
2019-02-04T05:05:29.604Z,95693.84
2019-02-04T05:07:58.968Z,95684.09
2019-02-04T05:10:28.342Z,95686.86
2019-02-04T05:12:57.677Z,95689.50
2019-02-04T05:15:28.089Z,95693.03
2019-02-04T05:17:57.401Z,95679.94
2019-02-04T05:20:26.755Z,95682.30
2019-02-04T05:22:56.165Z,95682.80
2019-02-04T05:25:25.542Z,95691.25
2019-02-04T05:27:55.200Z,95690.34
2019-02-04T05:30:25.322Z,95695.97
2019-02-04T05:32:54.698Z,95698.75
2019-02-04T05:35:24.068Z,95705.45
2019-02-04T05:37:53.561Z,95703.85
2019-02-04T05:40:22.915Z,95711.21
2019-02-04T05:42:52.248Z,95706.14
2019-02-04T05:45:21.893Z,95702.90
2019-02-04T05:47:51.261Z,95708.66
2019-02-04T05:50:20.723Z,95711.72
2019-02-04T05:52:50.641Z,95725.03
2019-02-04T05:55:21.578Z,95725.11
2019-02-04T05:57:50.935Z,95733.44
2019-02-04T06:00:26.886Z,95734.73
2019-02-04T06:02:56.377Z,95732.80
2019-02-04T06:05:25.820Z,95733.20
2019-02-04T06:07:55.162Z,95742.98
2019-02-04T06:10:24.502Z,95736.33
2019-02-04T06:12:53.867Z,95735.57
2019-02-04T06:15:23.244Z,95741.02
2019-02-04T06:17:52.583Z,95743.64
2019-02-04T06:20:22.566Z,95734.00
2019-02-04T06:22:52.276Z,95744.98
2019-02-04T06:25:21.636Z,95751.27
2019-02-04T06:27:51.006Z,95748.91
2019-02-04T06:30:20.437Z,95749.91
2019-02-04T06:32:49.926Z,95747.37
2019-02-04T06:35:19.665Z,95758.83
2019-02-04T06:37:49.424Z,95595.51
2019-02-04T06:40:19.083Z,95766.43
2019-02-04T06:42:48.536Z,95758.47
2019-02-04T06:45:18.093Z,95749.45
2019-02-04T06:47:47.775Z,95749.78
2019-02-04T06:50:17.941Z,95751.97
2019-02-04T06:52:47.558Z,95762.92
2019-02-04T06:55:19.245Z,95762.30
2019-02-04T06:57:48.711Z,95768.19
2019-02-04T07:00:18.679Z,95772.20
2019-02-04T07:02:48.552Z,95772.20
2019-02-04T07:05:18.421Z,95763.22
2019-02-04T07:07:47.790Z,95770.11
2019-02-04T07:10:19.743Z,95781.34
2019-02-04T07:12:49.551Z,95785.12
2019-02-04T07:15:18.971Z,95798.49
2019-02-04T07:17:48.311Z,95801.45
2019-02-04T07:20:20.420Z,95802.26
2019-02-04T07:22:49.790Z,95803.83
2019-02-04T07:25:19.800Z,95811.03
2019-02-04T07:27:49.145Z,95814.06
2019-02-04T07:30:20.718Z,95811.75
2019-02-04T07:32:50.655Z,95811.97
2019-02-04T07:35:20.132Z,95804.62
2019-02-04T07:37:49.925Z,95801.66
2019-02-04T07:40:24.231Z,95820.63
2019-02-04T07:42:53.728Z,95823.89
2019-02-04T07:45:23.057Z,95820.14
2019-02-04T07:47:52.764Z,95831.76
2019-02-04T07:50:22.361Z,95834.69
2019-02-04T07:52:52.024Z,95839.30
2019-02-04T07:55:21.403Z,95842.14
2019-02-04T07:57:50.790Z,95845.47
2019-02-04T08:00:28.445Z,95848.47
2019-02-04T08:02:58.195Z,95847.31
2019-02-04T08:05:27.667Z,95855.94
2019-02-04T08:07:57.155Z,95851.91
2019-02-04T08:10:26.478Z,95856.13
2019-02-04T08:13:01.571Z,95859.08
2019-02-04T08:15:29.477Z,95852.31
2019-02-04T08:17:58.854Z,95857.09
2019-02-04T08:20:28.430Z,95857.90
2019-02-04T08:22:57.948Z,95863.73
2019-02-04T08:25:27.641Z,95858.60
2019-02-04T08:27:57.485Z,95866.84
2019-02-04T08:30:29.490Z,95861.87
2019-02-04T08:32:58.824Z,95856.62
2019-02-04T08:35:28.184Z,95854.18
2019-02-04T08:37:57.494Z,95858.02
2019-02-04T08:40:26.893Z,95867.80
2019-02-04T08:42:56.521Z,95863.85
2019-02-04T08:45:25.855Z,95854.41
2019-02-04T08:47:55.199Z,95849.11
2019-02-04T08:50:25.072Z,95853.37
2019-02-04T08:52:54.610Z,95864.75
2019-02-04T08:55:24.286Z,95862.42
2019-02-04T08:57:54.392Z,95857.95
2019-02-04T09:00:24.236Z,95854.87
2019-02-04T09:02:53.621Z,95870.02
2019-02-04T09:05:23.718Z,95868.91
2019-02-04T09:07:53.135Z,95868.06
2019-02-04T09:10:33.390Z,95869.10
2019-02-04T09:13:03.171Z,95865.72
2019-02-04T09:15:32.618Z,95866.38
2019-02-04T09:18:03.717Z,95866.06
2019-02-04T09:20:34.869Z,95853.91
2019-02-04T09:23:06.193Z,95843.25
2019-02-04T09:25:36.146Z,95861.27
2019-02-04T09:28:05.719Z,95853.22
2019-02-04T09:30:35.087Z,95853.94
2019-02-04T09:33:04.649Z,95848.03
2019-02-04T09:35:34.039Z,95844.58
2019-02-04T09:38:03.394Z,95851.30
2019-02-04T09:40:35.937Z,95849.55
2019-02-04T09:43:26.937Z,95846.19
2019-02-04T09:45:50.662Z,95850.23
2019-02-04T09:48:21.161Z,95845.96
2019-02-04T09:50:53.924Z,95839.98
2019-02-04T09:53:29.343Z,95844.70
2019-02-04T09:55:58.670Z,95842.98
2019-02-04T09:58:28.117Z,95841.37
2019-02-04T10:00:57.580Z,95840.27
2019-02-04T10:03:27.220Z,95837.03
2019-02-04T10:05:59.363Z,95835.86
2019-02-04T10:08:28.964Z,95828.85
2019-02-04T10:11:01.030Z,95826.61
2019-02-04T10:13:30.572Z,95824.03
2019-02-04T10:16:00.019Z,95828.53
2019-02-04T10:18:29.437Z,95815.67
2019-02-04T10:20:58.817Z,95816.02
2019-02-04T10:23:28.285Z,95820.94
2019-02-04T10:25:57.671Z,95814.53
2019-02-04T10:28:27.025Z,95812.22
2019-02-04T10:30:56.768Z,95809.87
2019-02-04T10:33:26.331Z,95809.77
2019-02-04T10:35:57.041Z,95807.56
2019-02-04T10:38:26.456Z,95803.36
2019-02-04T10:40:55.875Z,95802.77
2019-02-04T10:43:25.410Z,95798.69
2019-02-04T10:45:54.717Z,95799.52
2019-02-04T10:48:24.110Z,95805.77
2019-02-04T10:50:53.434Z,95801.86
2019-02-04T10:53:22.875Z,95799.88
2019-02-04T10:55:52.335Z,95802.29
2019-02-04T10:58:21.745Z,95792.44
2019-02-04T11:00:51.230Z,95790.44
2019-02-04T11:03:20.599Z,95787.42
2019-02-04T11:05:50.084Z,95794.20
2019-02-04T11:08:19.573Z,95790.18
2019-02-04T11:10:48.981Z,95793.13
2019-02-04T11:13:19.039Z,95793.44
2019-02-04T11:15:49.723Z,95785.32
2019-02-04T11:18:20.155Z,95785.36
2019-02-04T11:20:57.866Z,95779.91
2019-02-04T11:23:21.035Z,95786.67
2019-02-04T11:25:50.612Z,95774.84
2019-02-04T11:28:21.319Z,95647.83
2019-02-04T11:31:03.342Z,95777.58
2019-02-04T11:33:33.370Z,95782.65
2019-02-04T11:36:02.861Z,95783.31
2019-02-04T11:38:32.278Z,95783.83
2019-02-04T11:41:01.722Z,95786.53
2019-02-04T11:43:31.156Z,95777.75
2019-02-04T11:46:00.548Z,95778.02
2019-02-04T11:48:30.950Z,95778.36
2019-02-04T11:51:09.356Z,95782.98
2019-02-04T11:53:33.225Z,95784.80
2019-02-04T11:56:03.665Z,95784.57
2019-02-04T11:58:34.389Z,95782.55
2019-02-04T12:01:13.173Z,95783.89
2019-02-04T12:03:42.584Z,95779.17
2019-02-04T12:06:12.015Z,95780.06
2019-02-04T12:08:42.567Z,95770.89
2019-02-04T12:11:22.587Z,95771.01
2019-02-04T12:13:52.102Z,95763.13
2019-02-04T12:16:21.525Z,95760.16
2019-02-04T12:18:50.923Z,95756.63
2019-02-04T12:21:21.825Z,95762.39
2019-02-04T12:23:51.337Z,95764.48
2019-02-04T12:26:20.711Z,95766.84
2019-02-04T12:28:50.152Z,95760.41
2019-02-04T12:31:21.032Z,95761.52
2019-02-04T12:33:50.362Z,95756.84
2019-02-04T12:36:19.696Z,95761.70
2019-02-04T12:38:50.915Z,95750.93
2019-02-04T12:41:20.490Z,95753.09
2019-02-04T12:43:49.842Z,95752.75
2019-02-04T12:46:19.460Z,95751.52
2019-02-04T12:48:48.834Z,95757.20
2019-02-04T12:51:18.263Z,95757.22
2019-02-04T12:53:48.374Z,95750.67
2019-02-04T12:56:18.205Z,95751.39
2019-02-04T12:58:55.251Z,95751.30
2019-02-04T13:01:19.499Z,95749.55
2019-02-04T13:03:49.409Z,95751.66
2019-02-04T13:06:19.317Z,95740.91
2019-02-04T13:08:52.384Z,95736.42
2019-02-04T13:11:22.249Z,95747.86
2019-02-04T13:13:56.911Z,95747.86
2019-02-04T13:16:26.883Z,95753.88
2019-02-04T13:18:56.945Z,95750.94
2019-02-04T13:21:26.709Z,95757.27
2019-02-04T13:24:00.534Z,95756.20
2019-02-04T13:26:30.245Z,95704.06
2019-02-04T13:29:00.039Z,95746.30
2019-02-04T13:31:29.393Z,95758.06
2019-02-04T13:33:58.772Z,95754.15
2019-02-04T13:36:28.167Z,95759.32
2019-02-04T13:38:57.566Z,95752.19
2019-02-04T13:41:27.033Z,95749.23
2019-02-04T13:43:56.448Z,95746.65
2019-02-04T13:46:25.845Z,95755.71
2019-02-04T13:48:55.188Z,95752.14
2019-02-04T13:51:24.550Z,95758.63
2019-02-04T13:53:57.069Z,95765.52
2019-02-04T13:56:25.393Z,95762.13
2019-02-04T13:58:54.749Z,95768.88
2019-02-04T14:01:24.164Z,95766.05
2019-02-04T14:03:53.529Z,95759.36
2019-02-04T14:06:22.889Z,95766.42
2019-02-04T14:08:52.465Z,95770.46
2019-02-04T14:11:21.815Z,95764.24
2019-02-04T14:13:51.236Z,95755.72
2019-02-04T14:16:20.643Z,95754.59
2019-02-04T14:18:49.973Z,95750.42
2019-02-04T14:21:19.415Z,95747.70
2019-02-04T14:23:48.755Z,95753.37
2019-02-04T14:26:18.527Z,95746.57
2019-02-04T14:28:48.071Z,95753.80
2019-02-04T14:31:17.435Z,95754.00
2019-02-04T14:33:46.863Z,95756.57
2019-02-04T14:36:16.608Z,95761.33
2019-02-04T14:38:46.073Z,95759.73
2019-02-04T14:41:15.453Z,95753.51
2019-02-04T14:44:16.602Z,95754.67
2019-02-04T14:46:57.804Z,95757.83
2019-02-04T14:50:14.559Z,95752.55
2019-02-04T14:53:02.746Z,95752.66
2019-02-04T14:56:11.303Z,95754.70
2019-02-04T14:59:09.249Z,95758.34
2019-02-04T15:02:07.910Z,95752.83
2019-02-04T15:05:22.904Z,95736.57
2019-02-04T15:09:00.683Z,95752.38
2019-02-04T15:11:37.767Z,95739.51
2019-02-04T15:15:12.733Z,95743.36
2019-02-04T15:17:55.553Z,95738.73
2019-02-04T15:20:55.650Z,95747.09
2019-02-04T15:23:52.842Z,95749.09
2019-02-04T15:27:33.574Z,95754.19
2019-02-04T15:30:41.795Z,95747.50
2019-02-04T15:33:27.868Z,95751.96
2019-02-04T15:36:40.008Z,95758.45
2019-02-04T15:39:46.045Z,95763.63
2019-02-04T15:42:51.133Z,95774.34
2019-02-04T15:46:01.457Z,95781.50
2019-02-04T15:48:56.093Z,95780.86
2019-02-04T15:51:33.991Z,95785.00
2019-02-04T15:54:06.143Z,95788.26
2019-02-04T15:56:35.622Z,95792.56
2019-02-04T15:59:05.222Z,95790.80
2019-02-04T16:01:35.033Z,95787.38
2019-02-04T16:04:26.996Z,95794.93
2019-02-04T16:06:56.352Z,95789.47
2019-02-04T16:09:25.910Z,95788.73
2019-02-04T16:11:55.291Z,95798.30
2019-02-04T16:14:24.643Z,95794.46
2019-02-04T16:16:54.183Z,95796.36
2019-02-04T16:19:23.756Z,95803.33
2019-02-04T16:21:53.105Z,95797.16
2019-02-04T16:24:22.495Z,95800.41
2019-02-04T16:26:51.866Z,95801.02
2019-02-04T16:29:21.282Z,95805.41
2019-02-04T16:31:50.623Z,95815.98
2019-02-04T16:34:20.041Z,95813.19
2019-02-04T16:36:49.384Z,95820.83
2019-02-04T16:39:19.126Z,95829.20
2019-02-04T16:41:48.499Z,95829.63
2019-02-04T16:44:17.909Z,95835.11
2019-02-04T16:46:47.228Z,95837.19
2019-02-04T16:49:16.591Z,95831.56
2019-02-04T16:51:45.941Z,95842.45
2019-02-04T16:54:15.267Z,95844.39
2019-02-04T16:56:44.568Z,95848.70
2019-02-04T16:59:13.936Z,95851.02
2019-02-04T17:01:43.277Z,95847.68
2019-02-04T17:04:13.075Z,95852.75
2019-02-04T17:06:43.612Z,95852.06
2019-02-04T17:09:13.835Z,95858.98
2019-02-04T17:11:43.288Z,95859.53
2019-02-04T17:14:13.678Z,95864.13
2019-02-04T17:16:43.054Z,95868.91
2019-02-04T17:19:12.409Z,95864.65
2019-02-04T17:21:41.740Z,95870.43
2019-02-04T17:24:11.107Z,95869.72
2019-02-04T17:26:40.463Z,95877.80
2019-02-04T17:29:10.332Z,95882.77
2019-02-04T17:31:39.719Z,95888.70
2019-02-04T17:34:09.081Z,95882.84
2019-02-04T17:36:38.455Z,95894.09
2019-02-04T17:39:09.538Z,95892.97
2019-02-04T17:41:38.951Z,95900.97
2019-02-04T17:44:08.674Z,95902.64
2019-02-04T17:46:38.323Z,95900.94
2019-02-04T17:49:07.664Z,95904.72
2019-02-04T17:51:37.150Z,95905.77
2019-02-04T17:54:06.550Z,95902.72
2019-02-04T17:56:36.054Z,95905.30
2019-02-04T17:59:05.902Z,95907.80
2019-02-04T18:01:35.284Z,95906.52
2019-02-04T18:04:04.843Z,95912.81
2019-02-04T18:06:34.294Z,95908.13
2019-02-04T18:09:05.356Z,95914.94
2019-02-04T18:11:34.702Z,95919.34
2019-02-04T18:14:04.062Z,95918.91
2019-02-04T18:16:33.601Z,95917.36
2019-02-04T18:19:02.985Z,95925.64
2019-02-04T18:21:33.241Z,95924.67
2019-02-04T18:24:02.633Z,95937.30
2019-02-04T18:26:31.998Z,95945.30
2019-02-04T18:29:01.391Z,95934.17
2019-02-04T18:31:33.955Z,95931.86
2019-02-04T18:34:01.797Z,95933.58
2019-02-04T18:36:31.184Z,95935.55
2019-02-04T18:39:01.434Z,95929.52
2019-02-04T18:41:30.926Z,95775.27
2019-02-04T18:44:00.332Z,95928.89
2019-02-04T18:46:30.167Z,95933.83
2019-02-04T18:48:59.536Z,95931.95
2019-02-04T18:51:28.938Z,95938.70
2019-02-04T18:53:58.305Z,95934.45
2019-02-04T18:56:27.781Z,95947.70
2019-02-04T18:58:57.321Z,95945.87
2019-02-04T19:01:26.814Z,95945.78
2019-02-04T19:04:11.939Z,95948.91
2019-02-04T19:06:47.712Z,95946.75
2019-02-04T19:09:12.805Z,95947.23
2019-02-04T19:11:42.195Z,95937.53
2019-02-04T19:14:12.244Z,95940.98
2019-02-04T19:16:41.611Z,95949.08
2019-02-04T19:19:11.159Z,95941.06
2019-02-04T19:21:40.503Z,95945.27
2019-02-04T19:24:10.086Z,95947.94
2019-02-04T19:26:41.107Z,95939.70
2019-02-04T19:29:10.447Z,95937.06
2019-02-04T19:31:40.014Z,95938.41
2019-02-04T19:34:10.064Z,95934.53
2019-02-04T19:36:39.406Z,95934.17
2019-02-04T19:39:10.594Z,95950.55
2019-02-04T19:41:40.006Z,95953.73
2019-02-04T19:44:09.658Z,95946.43
2019-02-04T19:46:39.072Z,95944.97
2019-02-04T19:49:08.399Z,95941.66
2019-02-04T19:51:37.762Z,95949.45
2019-02-04T19:54:07.138Z,95949.03
2019-02-04T19:56:36.478Z,95946.23
2019-02-04T19:59:06.149Z,95948.19
2019-02-04T20:01:35.500Z,95951.22
2019-02-04T20:04:04.918Z,95951.83
2019-02-04T20:06:34.265Z,95950.59
2019-02-04T20:09:07.762Z,95961.97
2019-02-04T20:11:37.121Z,95961.23
2019-02-04T20:14:06.947Z,95965.48
2019-02-04T20:16:39.320Z,95969.47
2019-02-04T20:19:08.058Z,95962.36
2019-02-04T20:21:37.390Z,95962.55
2019-02-04T20:24:07.431Z,95966.27
2019-02-04T20:26:36.880Z,95961.44
2019-02-04T20:29:06.227Z,95966.38
2019-02-04T20:31:35.863Z,95968.80
2019-02-04T20:34:05.801Z,95972.89
2019-02-04T20:36:35.158Z,95969.44
2019-02-04T20:39:07.785Z,95973.92
2019-02-04T20:41:37.158Z,95968.63
2019-02-04T20:44:06.603Z,95964.91
2019-02-04T20:46:36.072Z,95971.45
2019-02-04T20:49:05.689Z,95970.95
2019-02-04T20:51:36.174Z,95972.53
2019-02-04T20:54:06.082Z,95966.73
2019-02-04T20:56:35.421Z,95972.16
2019-02-04T20:59:04.788Z,95968.23
2019-02-04T21:01:34.151Z,95967.20
2019-02-04T21:04:05.526Z,95969.02
2019-02-04T21:06:35.005Z,95963.78
2019-02-04T21:09:07.429Z,95965.39
2019-02-04T21:11:37.239Z,95965.36
2019-02-04T21:14:07.473Z,95971.25
2019-02-04T21:16:36.865Z,95968.06
2019-02-04T21:19:06.224Z,95969.50
2019-02-04T21:21:35.733Z,95977.93
2019-02-04T21:24:05.893Z,95972.42
2019-02-04T21:26:35.654Z,95963.31
2019-02-04T21:29:05.034Z,95964.31
2019-02-04T21:31:34.366Z,95955.58
2019-02-04T21:34:03.921Z,95966.36
2019-02-04T21:36:33.231Z,95972.16
2019-02-04T21:39:02.577Z,95972.64
2019-02-04T21:41:31.963Z,95972.58
2019-02-04T21:44:01.322Z,95970.73
2019-02-04T21:46:30.787Z,95964.92
2019-02-04T21:49:00.117Z,95966.12
2019-02-04T21:51:29.499Z,95975.55
2019-02-04T21:53:58.968Z,95979.33
2019-02-04T21:56:28.349Z,95981.44
2019-02-04T21:58:57.691Z,95981.60
2019-02-04T22:01:27.030Z,95988.64
2019-02-04T22:03:56.483Z,95984.11
2019-02-04T22:06:25.848Z,95477.38
2019-02-04T22:08:56.685Z,95987.34
2019-02-04T22:11:26.349Z,95987.88
2019-02-04T22:13:55.879Z,95989.97
2019-02-04T22:16:27.377Z,95987.11
2019-02-04T22:18:57.052Z,95987.30
2019-02-04T22:21:26.419Z,95981.44
2019-02-04T22:23:56.145Z,95990.53
2019-02-04T22:26:25.520Z,95983.84
2019-02-04T22:28:54.860Z,95994.87
2019-02-04T22:31:24.188Z,95991.31
2019-02-04T22:33:53.634Z,95993.75
2019-02-04T22:36:23.075Z,95988.45
2019-02-04T22:38:52.416Z,96000.56
2019-02-04T22:41:21.816Z,95996.06
2019-02-04T22:43:51.131Z,96001.45
2019-02-04T22:46:20.456Z,96008.66
2019-02-04T22:48:52.656Z,96003.84
2019-02-04T22:51:22.065Z,96011.02
2019-02-04T22:53:51.418Z,96005.11
2019-02-04T22:56:20.784Z,96004.55
2019-02-04T22:58:52.182Z,95999.67
2019-02-04T23:01:44.075Z,96000.97
2019-02-04T23:04:13.815Z,95996.73
2019-02-04T23:06:43.660Z,96009.06
2019-02-04T23:09:13.028Z,95999.63
2019-02-04T23:11:42.357Z,96003.84
2019-02-04T23:14:11.704Z,96005.47
2019-02-04T23:16:41.050Z,96001.52
2019-02-04T23:19:10.548Z,96001.14
2019-02-04T23:21:40.827Z,95994.47
2019-02-04T23:24:10.172Z,95996.20
2019-02-04T23:26:39.480Z,95992.13
2019-02-04T23:29:08.842Z,95992.33
2019-02-04T23:31:38.375Z,95984.84
2019-02-04T23:34:07.715Z,95982.00
2019-02-04T23:36:37.561Z,95979.86
2019-02-04T23:39:09.382Z,95978.87
2019-02-04T23:41:38.718Z,95973.55
2019-02-04T23:44:08.103Z,95975.06
2019-02-04T23:46:37.519Z,95969.98
2019-02-04T23:49:07.264Z,95969.09
2019-02-04T23:51:36.647Z,95970.02
2019-02-04T23:54:06.856Z,95967.96
2019-02-04T23:56:36.205Z,95982.31
2019-02-04T23:59:05.765Z,95988.21
